Time;durP1;ratioP1;P1;durP2;ratioP2;P2;SDS_P1;SDS_P2;PMS_P1;PMS_P2;Temp;Humidity;BMP_temperature;BMP_pressure;BME280_temperature;BME280_humidity;BME280_pressure;Samples;Min_cycle;Max_cycle;Signal;HPM_P1;HPM_P2
2022/08/16 00:00:28;;;;;;;1999.90;999.90;;;;;;;20.23;100.00;97211.19;4988488;28;20414;-77
2022/08/16 00:02:56;;;;;;;1999.90;999.90;;;;;;;20.13;100.00;97206.28;4987568;28;20027;-78
2022/08/16 00:05:24;;;;;;;1999.90;999.90;;;;;;;20.13;100.00;97217.41;4982799;28;20026;-78
2022/08/16 00:07:50;;;;;;;1999.90;999.90;;;;;;;20.04;100.00;97208.53;4988876;28;20026;-77
2022/08/16 00:10:16;;;;;;;1999.90;999.90;;;;;;;19.99;100.00;97208.84;4986771;28;20023;-78
2022/08/16 00:12:42;;;;;;;1999.90;999.90;;;;;;;20.00;100.00;97218.78;4983049;28;20037;-78
2022/08/16 00:15:14;;;;;;;1999.90;999.90;;;;;;;20.01;100.00;97209.28;4989843;28;20038;-77
2022/08/16 00:17:40;;;;;;;1999.90;999.90;;;;;;;20.10;100.00;97218.16;4992338;28;20026;-77
2022/08/16 00:20:07;;;;;;;1999.90;999.90;;;;;;;20.06;100.00;97210.94;4990910;28;20893;-77
2022/08/16 00:22:35;;;;;;;1999.90;999.90;;;;;;;20.01;100.00;97211.25;4985204;28;20030;-77
2022/08/16 00:25:00;;;;;;;1999.90;999.90;;;;;;;20.01;100.00;97206.53;4986234;28;20510;-76
2022/08/16 00:27:26;;;;;;;1999.90;999.90;;;;;;;19.97;100.00;97214.00;4983532;28;20066;-76
2022/08/16 00:29:51;;;;;;;1999.90;999.90;;;;;;;20.06;100.00;97214.50;4990414;28;20508;-78
2022/08/16 00:32:17;;;;;;;1999.90;999.90;;;;;;;20.06;100.00;97200.63;4989388;28;20052;-78
2022/08/16 00:34:42;;;;;;;1999.90;999.90;;;;;;;20.06;100.00;97200.63;4982116;28;20022;-78
2022/08/16 00:37:08;;;;;;;1999.90;999.90;;;;;;;20.03;100.00;97193.06;4990071;28;20023;-77
2022/08/16 00:39:34;;;;;;;1999.90;999.90;;;;;;;19.91;100.00;97193.28;4993678;28;20091;-78
2022/08/16 00:41:59;;;;;;;1999.90;999.90;;;;;;;19.80;100.00;97177.66;4995120;28;20025;-77
2022/08/16 00:44:24;;;;;;;1999.90;999.90;;;;;;;19.70;100.00;97176.31;4994596;28;20018;-76
2022/08/16 00:46:56;;;;;;;1999.90;999.90;;;;;;;19.60;100.00;97183.31;4994721;28;20030;-77
2022/08/16 00:49:23;;;;;;;1999.90;999.90;;;;;;;19.64;100.00;97178.59;4996935;28;20082;-76
2022/08/16 00:51:50;;;;;;;1999.90;999.90;;;;;;;19.72;100.00;97187.84;4998085;28;20074;-76
2022/08/16 00:54:16;;;;;;;1999.90;999.90;;;;;;;19.60;100.00;97193.59;4996723;28;20458;-77
2022/08/16 00:56:45;;;;;;;1999.90;999.90;;;;;;;19.45;100.00;97202.88;4997489;28;20038;-77
2022/08/16 00:59:13;;;;;;;1999.90;999.90;;;;;;;19.42;100.00;97223.03;4996546;28;20062;-76
2022/08/16 01:01:40;;;;;;;1999.90;999.90;;;;;;;19.46;100.00;97229.44;4998810;28;20117;-77
2022/08/16 01:04:06;;;;;;;1999.90;999.90;;;;;;;19.54;100.00;97223.66;5000700;28;20022;-77
2022/08/16 01:06:33;;;;;;;1999.90;999.90;;;;;;;19.67;100.00;97240.91;4995587;28;20038;-77
2022/08/16 01:09:00;;;;;;;1999.90;999.90;;;;;;;19.52;100.00;97244.59;4992264;28;20049;-77
2022/08/16 01:11:26;;;;;;;1999.90;999.90;;;;;;;19.49;100.00;97243.34;4990787;28;20085;-77
2022/08/16 01:13:56;;;;;;;1999.90;999.90;;;;;;;19.41;100.00;97225.00;4990702;28;20493;-78
2022/08/16 01:16:26;;;;;;;1999.90;999.90;;;;;;;19.64;100.00;97241.63;4991475;28;20038;-76
2022/08/16 01:18:59;;;;;;;1999.90;999.90;;;;;;;19.65;100.00;97249.56;4991684;28;20468;-78
2022/08/16 01:21:36;;;;;;;1999.90;999.90;;;;;;;19.67;100.00;97257.56;4991054;28;20034;-79
2022/08/16 01:24:26;;;;;;;1999.90;999.90;;;;;;;19.54;100.00;97242.25;4992799;28;20027;-76
2022/08/16 01:26:58;;;;;;;1999.90;999.90;;;;;;;19.51;100.00;97245.78;4996641;28;20035;-77
2022/08/16 01:29:31;;;;;;;1999.90;999.90;;;;;;;19.38;100.00;97242.34;4996116;28;20390;-78
2022/08/16 01:31:57;;;;;;;1999.90;999.90;;;;;;;19.31;100.00;97242.22;4997321;28;20051;-77
2022/08/16 01:34:22;;;;;;;1999.90;999.90;;;;;;;19.25;100.00;97233.41;4996461;28;20042;-77
2022/08/16 01:36:55;;;;;;;1999.90;999.90;;;;;;;19.43;100.00;97228.19;4996672;28;20034;-77
2022/08/16 01:39:20;;;;;;;1999.90;999.90;;;;;;;19.37;100.00;97223.28;4995334;28;20022;-78
2022/08/16 01:41:46;;;;;;;1999.90;999.90;;;;;;;19.24;100.00;97215.16;4996207;28;20073;-78
2022/08/16 01:44:12;;;;;;;1999.90;999.90;;;;;;;19.13;100.00;97222.50;4994252;28;20026;-78
2022/08/16 01:46:41;;;;;;;1999.90;999.90;;;;;;;19.05;100.00;97215.22;4994577;28;20093;-77
2022/08/16 01:49:31;;;;;;;1999.90;999.90;;;;;;;19.08;100.00;97216.44;4994779;28;20030;-78
2022/08/16 01:52:00;;;;;;;1999.90;999.90;;;;;;;18.95;100.00;97221.38;4994501;28;20042;-78
2022/08/16 01:54:26;;;;;;;1999.90;999.90;;;;;;;18.88;100.00;97226.78;4994483;28;20046;-77
2022/08/16 01:56:52;;;;;;;1999.90;999.90;;;;;;;18.68;100.00;97209.38;4995497;28;20038;-78
2022/08/16 01:59:17;;;;;;;1999.90;999.90;;;;;;;18.77;100.00;97236.84;4995927;28;20039;-78
2022/08/16 02:01:47;;;;;;;1999.90;999.90;;;;;;;18.85;100.00;97235.03;4996221;28;20018;-78
2022/08/16 02:04:13;;;;;;;1999.90;999.90;;;;;;;18.83;100.00;97243.72;4996953;28;20037;-78
2022/08/16 02:06:40;;;;;;;1999.90;999.90;;;;;;;18.95;100.00;97242.75;4996733;28;20471;-78
2022/08/16 02:09:06;;;;;;;1999.90;999.90;;;;;;;19.05;100.00;97240.16;4997078;28;20076;-78
2022/08/16 02:11:34;;;;;;;1999.90;999.90;;;;;;;19.01;100.00;97244.88;4997118;28;20030;-78
2022/08/16 02:13:59;;;;;;;1999.90;999.90;;;;;;;19.07;100.00;97251.72;4997243;28;20017;-78
2022/08/16 02:16:25;;;;;;;1999.90;999.90;;;;;;;19.06;100.00;97247.31;4997153;28;20038;-78
2022/08/16 02:18:51;;;;;;;1999.90;999.90;;;;;;;19.18;100.00;97244.38;4997145;28;20045;-78
2022/08/16 02:21:17;;;;;;;1999.90;999.90;;;;;;;19.19;100.00;97240.44;4998766;28;20045;-78
2022/08/16 02:23:43;;;;;;;1999.90;999.90;;;;;;;19.20;100.00;97235.72;4996615;28;20390;-78
2022/08/16 02:26:08;;;;;;;1999.90;999.90;;;;;;;19.19;100.00;97237.69;4993771;28;20129;-79
2022/08/16 02:28:34;;;;;;;1999.90;999.90;;;;;;;19.16;100.00;97224.53;4995878;28;20054;-78
2022/08/16 02:31:04;;;;;;;1999.90;999.90;;;;;;;19.27;100.00;97231.06;4996180;28;20427;-78
2022/08/16 02:33:30;;;;;;;1999.90;999.90;;;;;;;19.39;100.00;97226.53;4996900;28;20065;-78
2022/08/16 02:35:55;;;;;;;1999.90;999.90;;;;;;;19.43;100.00;97227.41;4994864;28;20455;-78
2022/08/16 02:38:21;;;;;;;1999.90;999.90;;;;;;;19.42;100.00;97234.13;4996626;28;20034;-78
2022/08/16 02:40:47;;;;;;;1999.90;999.90;;;;;;;19.39;100.00;97243.16;4997829;28;20487;-77
2022/08/16 02:43:12;;;;;;;1999.90;999.90;;;;;;;19.35;100.00;97237.56;4999275;28;20117;-78
2022/08/16 02:45:38;;;;;;;1999.90;999.90;;;;;;;19.26;100.00;97240.53;4997797;28;20030;-77
2022/08/16 02:48:04;;;;;;;1999.90;999.90;;;;;;;19.27;100.00;97242.16;4996146;28;20557;-78
2022/08/16 02:50:29;;;;;;;1999.90;999.90;;;;;;;19.22;100.00;97255.53;4994084;28;20022;-78
2022/08/16 02:52:54;;;;;;;1999.90;999.90;;;;;;;19.08;100.00;97253.28;4993345;28;20061;-78
2022/08/16 02:55:21;;;;;;;1999.90;999.90;;;;;;;19.09;100.00;97257.69;4995538;28;20496;-78
2022/08/16 02:57:46;;;;;;;1999.90;999.90;;;;;;;18.97;100.00;97252.31;4997516;28;20034;-78
2022/08/16 03:00:14;;;;;;;1999.90;999.90;;;;;;;18.93;100.00;97248.66;4998759;28;20054;-78
2022/08/16 03:02:41;;;;;;;1999.90;999.90;;;;;;;19.08;100.00;97260.81;4999647;28;20034;-77
2022/08/16 03:05:10;;;;;;;1999.90;999.90;;;;;;;19.05;100.00;97254.03;4997315;28;20486;-78
2022/08/16 03:07:35;;;;;;;1999.90;999.90;;;;;;;18.92;100.00;97276.75;4996746;28;20457;-77
2022/08/16 03:10:07;;;;;;;1999.90;999.90;;;;;;;18.87;100.00;97275.06;4996293;28;20022;-77
2022/08/16 03:12:32;;;;;;;1999.90;999.90;;;;;;;18.83;100.00;97276.97;4997661;28;20050;-78
2022/08/16 03:14:58;;;;;;;1999.90;999.90;;;;;;;18.93;100.00;97292.19;4997708;28;20029;-79
2022/08/16 03:17:23;;;;;;;1999.90;999.90;;;;;;;18.91;100.00;97292.59;4996721;28;20413;-79
2022/08/16 03:19:49;;;;;;;1999.90;999.90;;;;;;;18.97;100.00;97282.81;4995165;28;20022;-79
2022/08/16 03:22:15;;;;;;;1999.90;999.90;;;;;;;19.01;100.00;97271.78;4995788;28;20061;-79
2022/08/16 03:24:40;;;;;;;1999.90;999.90;;;;;;;19.07;100.00;97286.94;4996878;28;20081;-78
2022/08/16 03:27:07;;;;;;;1999.90;999.90;;;;;;;19.23;100.00;97280.13;4997273;28;20545;-79
2022/08/16 03:29:33;;;;;;;1999.90;999.90;;;;;;;19.38;100.00;97297.84;4997449;28;20053;-77
2022/08/16 03:31:59;;;;;;;1999.90;999.90;;;;;;;19.47;100.00;97286.53;4997276;28;20030;-77
2022/08/16 03:34:24;;;;;;;1999.90;999.90;;;;;;;19.54;100.00;97300.53;4997777;28;20499;-77
2022/08/16 03:36:50;;;;;;;1999.90;999.90;;;;;;;19.58;100.00;97288.31;4998874;28;20073;-77
2022/08/16 03:39:15;;;;;;;1999.90;999.90;;;;;;;19.74;100.00;97285.41;4997248;28;20030;-75
2022/08/16 03:41:40;;;;;;;1999.90;999.90;;;;;;;19.81;99.94;97276.38;4994807;28;20085;-78
2022/08/16 03:44:06;;;;;;;1999.90;999.90;;;;;;;19.91;98.45;97281.31;4994131;28;20453;-78
2022/08/16 03:46:34;;;;;;;1999.90;999.90;;;;;;;19.99;96.67;97275.50;4993985;28;20038;-77
2022/08/16 03:48:59;;;;;;;1999.90;999.90;;;;;;;20.18;95.17;97280.13;4994776;28;20429;-78
2022/08/16 03:51:27;;;;;;;1999.90;999.90;;;;;;;20.30;93.92;97288.28;4997434;28;20042;-77
2022/08/16 03:53:52;;;;;;;1999.90;999.90;;;;;;;20.39;93.74;97279.69;4996643;28;20034;-77
2022/08/16 03:56:18;;;;;;;1999.90;999.90;;;;;;;20.39;94.58;97269.38;4994754;28;20026;-78
2022/08/16 03:58:43;;;;;;;1999.90;999.90;;;;;;;20.41;94.28;97272.56;4994549;28;20086;-77
2022/08/16 04:01:09;;;;;;;1999.90;999.90;;;;;;;20.35;95.13;97282.41;4993057;28;20060;-78
2022/08/16 04:03:35;;;;;;;1999.90;999.90;;;;;;;20.40;94.67;97273.75;4992551;28;20392;-78
2022/08/16 04:06:00;;;;;;;1999.90;999.90;;;;;;;20.45;93.94;97276.22;4992086;28;20117;-78
2022/08/16 04:08:26;;;;;;;1999.90;999.90;;;;;;;20.41;94.14;97271.78;4992599;28;20022;-77
2022/08/16 04:10:53;;;;;;;1999.90;999.90;;;;;;;20.37;94.21;97276.47;4992065;28;20022;-77
2022/08/16 04:13:19;;;;;;;1999.90;999.90;;;;;;;20.40;93.75;97267.38;4990197;28;20057;-78
2022/08/16 04:15:44;;;;;;;1999.90;999.90;;;;;;;20.42;93.92;97273.38;4990296;28;20037;-78
2022/08/16 04:18:10;;;;;;;1999.90;999.90;;;;;;;20.36;93.78;97263.78;4992597;28;20018;-78
2022/08/16 04:20:35;;;;;;;1999.90;999.90;;;;;;;20.55;92.98;97277.53;4993740;28;20402;-78
2022/08/16 04:23:01;;;;;;;1999.90;999.90;;;;;;;20.58;92.13;97283.09;4991928;28;20145;-78
2022/08/16 04:25:27;;;;;;;1999.90;999.90;;;;;;;20.36;94.94;97283.22;4995664;28;20023;-77
2022/08/16 04:27:53;;;;;;;1999.90;999.90;;;;;;;19.88;100.00;97293.16;4994355;28;20031;-78
2022/08/16 04:30:21;;;;;;;1999.90;999.90;;;;;;;19.69;100.00;97285.72;4992007;28;20026;-77
2022/08/16 04:32:47;;;;;;;1999.90;999.90;;;;;;;19.36;100.00;97310.47;4973564;28;20031;-79
2022/08/16 04:35:16;;;;;;;1999.90;999.90;;;;;;;19.16;100.00;97306.94;4972771;28;20034;-78
2022/08/16 04:37:44;;;;;;;1999.90;999.90;;;;;;;19.00;100.00;97311.75;4973735;28;20423;-78
2022/08/16 04:40:11;;;;;;;1999.90;999.90;;;;;;;18.90;100.00;97296.50;4973735;28;20027;-77
2022/08/16 04:42:39;;;;;;;1999.90;999.90;;;;;;;18.92;100.00;97313.56;4973934;28;20467;-78
2022/08/16 04:45:06;;;;;;;1999.90;999.90;;;;;;;19.00;100.00;97320.88;4972681;28;20031;-78
2022/08/16 04:47:33;;;;;;;1999.90;999.90;;;;;;;18.97;100.00;97313.28;4974109;28;20089;-77
2022/08/16 04:50:00;;;;;;;1999.90;999.90;;;;;;;18.88;100.00;97318.25;4974766;28;20053;-79
2022/08/16 04:52:25;;;;;;;1999.90;999.90;;;;;;;18.84;100.00;97317.38;4974806;28;20657;-78
2022/08/16 04:54:50;;;;;;;1999.90;999.90;;;;;;;18.83;100.00;97315.75;4979024;28;20077;-77
2022/08/16 04:57:15;;;;;;;1999.90;999.90;;;;;;;19.05;100.00;97323.34;4977146;28;20030;-78
2022/08/16 04:59:41;;;;;;;1999.90;999.90;;;;;;;19.07;100.00;97321.03;4981486;28;20026;-78
2022/08/16 05:02:06;;;;;;;1999.90;999.90;;;;;;;19.12;100.00;97337.34;4987702;28;20045;-78
2022/08/16 05:04:31;;;;;;;1999.90;999.90;;;;;;;19.18;100.00;97338.66;4990075;28;20026;-74
2022/08/16 05:06:57;;;;;;;1999.90;999.90;;;;;;;19.15;100.00;97339.41;4995677;28;20121;-79
2022/08/16 05:09:23;;;;;;;1999.90;999.90;;;;;;;19.14;100.00;97332.22;4991724;28;20037;-80
2022/08/16 05:11:48;;;;;;;1999.90;999.90;;;;;;;19.26;100.00;97343.16;4999469;28;20034;-80
2022/08/16 05:14:13;;;;;;;1999.90;999.90;;;;;;;19.31;100.00;97347.63;5009782;28;20030;-82
2022/08/16 05:16:39;;;;;;;1999.90;999.90;;;;;;;19.29;100.00;97344.44;5020535;28;20029;-77
2022/08/16 05:19:05;;;;;;;1999.90;999.90;;;;;;;19.35;100.00;97356.03;4991096;28;20125;-80
2022/08/16 05:21:32;;;;;;;1999.90;999.90;;;;;;;19.41;100.00;97354.56;4984959;28;20038;-81
2022/08/16 05:23:58;;;;;;;1999.90;999.90;;;;;;;19.47;100.00;97358.66;4984719;28;20026;-81
2022/08/16 05:26:25;;;;;;;1999.90;999.90;;;;;;;19.47;100.00;97356.69;4987379;28;20046;-81
2022/08/16 05:28:50;;;;;;;1999.90;999.90;;;;;;;19.51;100.00;97353.97;4982150;28;20031;-78
2022/08/16 05:31:16;;;;;;;1999.90;999.90;;;;;;;19.60;100.00;97358.13;4981506;28;20498;-79
2022/08/16 05:33:42;;;;;;;1999.90;999.90;;;;;;;19.63;100.00;97351.84;4980798;28;20022;-78
2022/08/16 05:36:09;;;;;;;1999.90;999.90;;;;;;;19.74;100.00;97360.34;4993439;28;20038;-78
2022/08/16 05:38:34;;;;;;;1999.90;999.90;;;;;;;19.85;100.00;97360.53;4983102;28;20467;-77
2022/08/16 05:41:01;;;;;;;1999.90;999.90;;;;;;;19.91;100.00;97359.84;4977207;28;20038;-77
2022/08/16 05:43:27;;;;;;;1999.90;999.90;;;;;;;19.87;100.00;97352.63;4989675;28;20034;-75
2022/08/16 05:45:53;;;;;;;1999.90;999.90;;;;;;;19.96;100.00;97351.22;4998237;28;20042;-78
2022/08/16 05:48:19;;;;;;;1999.90;999.90;;;;;;;19.89;100.00;97353.06;5000029;28;20007;-74
2022/08/16 05:50:45;;;;;;;1999.90;999.90;;;;;;;19.87;100.00;97353.44;4999261;28;20041;-78
2022/08/16 05:53:10;;;;;;;1999.90;999.90;;;;;;;19.81;100.00;97363.25;4979659;28;20395;-79
2022/08/16 05:55:36;;;;;;;1999.90;999.90;;;;;;;19.98;100.00;97359.97;4983174;28;20078;-82
2022/08/16 05:58:01;;;;;;;1999.90;999.90;;;;;;;20.13;100.00;97355.47;4984317;28;20046;-79
2022/08/16 06:00:26;;;;;;;1999.90;999.90;;;;;;;20.13;100.00;97350.72;4987106;28;20019;-76
2022/08/16 06:02:52;;;;;;;1999.90;999.90;;;;;;;20.18;100.00;97357.91;4995421;28;20029;-78
2022/08/16 06:05:17;;;;;;;1999.90;999.90;;;;;;;20.26;100.00;97363.25;4996912;28;20026;-81
2022/08/16 06:07:43;;;;;;;1999.90;999.90;;;;;;;20.30;100.00;97366.88;4989020;28;20458;-79
2022/08/16 06:10:09;;;;;;;1999.90;999.90;;;;;;;20.23;100.00;97360.38;4984178;28;20038;-76
2022/08/16 06:12:35;;;;;;;1999.90;999.90;;;;;;;20.39;100.00;97365.81;4979065;28;20472;-78
2022/08/16 06:15:05;;;;;;;1999.90;999.90;;;;;;;20.47;100.00;97376.66;4977742;28;20035;-78
2022/08/16 06:17:30;;;;;;;1999.90;999.90;;;;;;;20.47;100.00;97370.31;4981600;28;20026;-79
2022/08/16 06:19:56;;;;;;;1999.90;999.90;;;;;;;20.38;100.00;97378.09;4988488;28;20075;-78
2022/08/16 06:22:21;;;;;;;1999.90;999.90;;;;;;;20.28;100.00;97377.56;4987725;28;20025;-81
2022/08/16 06:24:47;;;;;;;1999.90;999.90;;;;;;;20.29;100.00;97376.41;4990167;28;20042;-77
2022/08/16 06:27:12;;;;;;;1999.90;999.90;;;;;;;20.19;100.00;97368.66;4979713;28;20054;-77
2022/08/16 06:29:38;;;;;;;1999.90;999.90;;;;;;;20.35;100.00;97376.06;4979529;28;20053;-79
2022/08/16 06:32:03;;;;;;;1999.90;999.90;;;;;;;20.35;100.00;97378.84;4980691;28;20030;-77
2022/08/16 06:34:29;;;;;;;1999.90;999.90;;;;;;;20.40;100.00;97371.00;4980485;28;20030;-80
2022/08/16 06:36:55;;;;;;;1999.90;999.90;;;;;;;20.38;100.00;97367.78;4980985;28;20061;-80
2022/08/16 06:39:20;;;;;;;1999.90;999.90;;;;;;;20.37;100.00;97363.41;4999113;28;20015;-78
2022/08/16 06:41:46;;;;;;;1999.90;999.90;;;;;;;19.96;100.00;97355.94;5000921;28;20030;-77
2022/08/16 06:44:11;;;;;;;1999.90;999.90;;;;;;;19.96;100.00;97375.38;5000605;28;20025;-80
2022/08/16 06:46:37;;;;;;;1999.90;999.90;;;;;;;19.85;100.00;97377.19;5000553;28;20018;-78
2022/08/16 06:49:05;;;;;;;1999.90;999.90;;;;;;;19.70;100.00;97373.38;4999998;28;20022;-83
2022/08/16 06:51:30;;;;;;;1999.90;999.90;;;;;;;19.57;100.00;97383.84;4999151;28;20140;-80
2022/08/16 06:53:56;;;;;;;1999.90;999.90;;;;;;;19.47;100.00;97392.75;4999111;28;20011;-81
2022/08/16 06:56:21;;;;;;;1999.90;999.90;;;;;;;19.62;100.00;97402.16;4999750;28;20046;-85
2022/08/16 06:58:47;;;;;;;1999.90;999.90;;;;;;;19.56;100.00;97411.94;5000335;28;20122;-83
2022/08/16 07:01:12;;;;;;;1999.90;999.90;;;;;;;19.70;100.00;97413.00;5000268;28;20090;-86
2022/08/16 07:03:38;;;;;;;1999.90;999.90;;;;;;;19.86;100.00;97418.44;5000668;28;20025;-75
2022/08/16 07:06:04;;;;;;;1999.90;999.90;;;;;;;20.04;100.00;97432.66;5000282;28;20023;-79
2022/08/16 07:08:29;;;;;;;1999.90;999.90;;;;;;;20.19;100.00;97421.44;5000352;28;20007;-77
2022/08/16 07:10:57;;;;;;;1999.90;999.90;;;;;;;20.33;100.00;97436.78;5000188;28;20086;-78
2022/08/16 07:13:23;;;;;;;1999.90;999.90;;;;;;;19.85;100.00;97429.94;4999534;28;20086;-76
2022/08/16 07:15:49;;;;;;;1999.90;999.90;;;;;;;19.46;100.00;97434.72;4999997;28;20023;-82
2022/08/16 07:18:19;;;;;;;1999.90;999.90;;;;;;;19.69;100.00;97430.03;4999575;28;20011;-83
2022/08/16 07:20:45;;;;;;;1999.90;999.90;;;;;;;19.74;100.00;97424.19;4999561;28;20015;-78
2022/08/16 07:23:11;;;;;;;1999.90;999.90;;;;;;;20.13;100.00;97434.03;4998833;28;20019;-85
2022/08/16 07:25:37;;;;;;;1999.90;999.90;;;;;;;20.46;100.00;97440.94;4999293;28;20046;-84
2022/08/16 07:28:02;;;;;;;1999.90;999.90;;;;;;;20.37;100.00;97435.66;4999839;28;20026;-82
2022/08/16 07:30:29;;;;;;;1999.90;999.90;;;;;;;20.34;100.00;97428.06;4999814;28;20038;-77
2022/08/16 07:35:30;;;;;;;;;;;;;;;20.96;100.00;97436.94;5674834;23;20046;-79
2022/08/16 07:37:56;;;;;;;1999.90;999.90;;;;;;;21.09;98.82;97403.00;5038444;28;19949;-76
2022/08/16 07:40:22;;;;;;;1999.90;999.90;;;;;;;21.99;93.16;97433.50;5038485;28;20022;-76
2022/08/16 07:42:47;;;;;;;1999.90;999.90;;;;;;;22.31;89.06;97438.19;5038967;28;20060;-75
2022/08/16 07:45:12;;;;;;;1999.90;999.90;;;;;;;22.25;89.80;97439.72;5038914;28;20028;-76
2022/08/16 07:47:38;;;;;;;1999.90;999.90;;;;;;;22.38;87.86;97446.59;5038421;28;20085;-75
2022/08/16 07:50:04;;;;;;;1999.90;999.90;;;;;;;22.93;83.10;97438.28;5038943;28;20025;-76
2022/08/16 07:52:29;;;;;;;1999.90;999.90;;;;;;;22.91;81.61;97435.06;5038809;28;20017;-76
2022/08/16 07:54:54;;;;;;;1999.90;999.90;;;;;;;23.90;78.45;97432.78;5038747;28;20012;-81
2022/08/16 07:57:20;;;;;;;1999.90;999.90;;;;;;;25.37;70.10;97436.75;5038381;28;20018;-81
2022/08/16 07:59:45;;;;;;;1999.90;999.90;;;;;;;25.38;67.41;97443.94;5036347;28;20029;-86
2022/08/16 08:02:11;;;;;;;1999.90;999.90;;;;;;;23.98;73.56;97443.56;5038213;28;20026;-83
2022/08/16 08:04:37;;;;;;;1999.90;999.90;;;;;;;24.77;69.61;97445.25;5035980;28;20022;-80
2022/08/16 08:07:03;;;;;;;1999.90;999.90;;;;;;;26.37;63.57;97446.31;5037425;28;20080;-77
2022/08/16 08:09:28;;;;;;;1999.90;999.90;;;;;;;26.45;62.32;97450.63;5036452;28;20053;-85
2022/08/16 08:11:53;;;;;;;1999.90;999.90;;;;;;;26.34;62.90;97447.13;5018363;28;20039;-81
2022/08/16 08:14:20;;;;;;;1999.90;999.90;;;;;;;26.53;62.83;97448.59;5015429;28;20015;-78
2022/08/16 08:16:45;;;;;;;1999.90;999.90;;;;;;;26.41;61.62;97458.28;5019146;28;20015;-85
2022/08/16 08:19:11;;;;;;;1999.90;999.90;;;;;;;25.93;63.70;97455.38;5019192;28;20070;-84
2022/08/16 08:21:39;;;;;;;1999.90;999.90;;;;;;;27.54;57.79;97456.47;5028621;28;20045;-81
2022/08/16 08:24:06;;;;;;;1999.90;999.90;;;;;;;28.69;53.34;97444.81;5015260;28;20065;-84
2022/08/16 08:26:32;;;;;;;1999.90;999.90;;;;;;;29.28;51.53;97449.06;5005439;28;20490;-77
2022/08/16 08:28:57;;;;;;;1999.90;999.90;;;;;;;30.06;48.96;97454.75;5004097;28;20058;-77
2022/08/16 08:31:23;;;;;;;1999.90;999.90;;;;;;;31.30;45.60;97458.19;4994397;28;20026;-76
2022/08/16 08:33:48;;;;;;;1999.90;999.90;;;;;;;31.27;45.62;97452.63;4997532;28;20026;-76
2022/08/16 08:36:23;;;;;;;1999.90;999.90;;;;;;;32.43;42.43;97465.47;4994860;28;20058;-78
2022/08/16 08:38:51;;;;;;;1999.90;999.90;;;;;;;32.57;40.90;97458.59;4995804;28;20066;-76
2022/08/16 08:41:17;;;;;;;1999.90;999.90;;;;;;;32.31;41.84;97466.25;5007804;28;20034;-75
2022/08/16 08:43:42;;;;;;;1999.90;999.90;;;;;;;32.78;40.83;97453.00;5002276;28;20070;-76
2022/08/16 08:46:08;;;;;;;1999.90;999.90;;;;;;;32.15;41.35;97455.00;5001276;28;20049;-75
2022/08/16 08:48:35;;;;;;;1999.90;999.90;;;;;;;29.95;46.01;97454.16;4996882;28;20049;-76
2022/08/16 08:51:02;;;;;;;1999.90;999.90;;;;;;;31.61;42.50;97458.56;4995417;28;20017;-75
2022/08/16 08:53:27;;;;;;;1999.90;999.90;;;;;;;32.13;41.05;97463.97;5005717;28;20034;-75
2022/08/16 08:55:53;;;;;;;1999.90;999.90;;;;;;;33.50;37.55;97460.69;5001084;28;20435;-76
2022/08/16 08:58:18;;;;;;;1999.90;999.90;;;;;;;31.04;41.61;97459.31;5000761;28;20112;-78
2022/08/16 09:00:44;;;;;;;1999.90;999.90;;;;;;;31.51;40.99;97459.69;4998772;28;20122;-78
2022/08/16 09:03:09;;;;;;;1999.90;999.90;;;;;;;31.23;41.79;97457.59;4998624;28;20018;-81
2022/08/16 09:05:35;;;;;;;1999.90;999.90;;;;;;;32.22;38.79;97460.47;4997312;28;20072;-79
2022/08/16 09:08:00;;;;;;;1999.90;999.90;;;;;;;31.32;40.57;97449.28;4996195;28;20474;-79
2022/08/16 09:10:25;;;;;;;1999.90;999.90;;;;;;;33.29;36.98;97447.25;5000961;28;20084;-77
2022/08/16 09:12:51;;;;;;;1999.90;999.90;;;;;;;33.60;36.02;97450.22;5000383;28;20514;-75
2022/08/16 09:15:18;;;;;;;1999.90;999.90;;;;;;;34.17;35.79;97434.72;4995490;28;20097;-77
2022/08/16 09:17:44;;;;;;;1999.90;999.90;;;;;;;33.54;36.31;97441.50;4997367;28;20422;-76
2022/08/16 09:20:13;;;;;;;1999.90;999.90;;;;;;;33.97;35.96;97434.25;5000292;28;20482;-76
2022/08/16 09:22:39;;;;;;;1999.90;999.90;;;;;;;35.31;33.58;97438.13;4999878;28;20140;-73
2022/08/16 09:25:05;;;;;;;1999.90;999.90;;;;;;;32.54;37.98;97437.59;5004903;28;20050;-75
2022/08/16 09:27:30;;;;;;;1999.90;999.90;;;;;;;32.46;38.66;97424.88;5001367;28;20476;-77
2022/08/16 09:29:56;;;;;;;1999.90;999.90;;;;;;;34.70;34.46;97436.25;5002422;28;20026;-77
2022/08/16 09:32:21;;;;;;;1999.90;999.90;;;;;;;34.89;33.80;97439.94;4998464;28;20026;-76
2022/08/16 09:34:46;;;;;;;1999.90;999.90;;;;;;;35.45;32.72;97431.03;4997506;28;20080;-77
2022/08/16 09:37:14;;;;;;;1999.90;999.90;;;;;;;34.71;33.20;97437.81;4999453;28;20275;-75
2022/08/16 09:39:40;;;;;;;1999.90;999.90;;;;;;;33.45;35.79;97429.28;4996756;28;20042;-79
2022/08/16 09:42:06;;;;;;;1999.90;999.90;;;;;;;34.70;33.43;97427.72;4997736;28;20118;-76
2022/08/16 09:44:31;;;;;;;1999.90;999.90;;;;;;;34.99;33.39;97424.47;4997418;28;20042;-77
2022/08/16 09:46:57;;;;;;;1999.90;999.90;;;;;;;36.65;30.59;97428.31;4998812;28;20034;-76
2022/08/16 09:49:22;;;;;;;1999.90;999.90;;;;;;;35.46;32.08;97426.91;5002386;28;20026;-76
2022/08/16 09:51:52;;;;;;;1999.90;999.90;;;;;;;35.50;31.75;97430.38;5000431;28;20153;-77
2022/08/16 09:54:23;;;;;;;1999.90;999.90;;;;;;;36.89;29.39;97431.19;5002465;28;20466;-77
2022/08/16 09:56:50;;;;;;;1999.90;999.90;;;;;;;36.93;29.37;97429.72;5001736;28;20402;-75
2022/08/16 09:59:16;;;;;;;1999.90;999.90;;;;;;;37.04;28.86;97426.34;5006444;28;20030;-76
2022/08/16 10:01:43;;;;;;;1999.90;999.90;;;;;;;36.05;30.29;97416.94;5000637;28;20323;-75
2022/08/16 10:04:09;;;;;;;1999.90;999.90;;;;;;;35.56;31.96;97417.09;4999187;28;20774;-75
2022/08/16 10:06:35;;;;;;;1999.90;999.90;;;;;;;34.46;32.88;97403.91;5002422;28;20046;-76
2022/08/16 10:09:05;;;;;;;1999.90;999.90;;;;;;;36.29;29.78;97417.81;5005617;28;20030;-76
2022/08/16 10:14:15;;;;;;;1999.90;999.90;;;;;;;36.49;28.14;97417.25;5005371;28;20119;-76
2022/08/16 10:16:44;;;;;;;1999.90;999.90;;;;;;;35.26;30.44;97403.81;5009505;28;20065;-77
2022/08/16 10:19:10;;;;;;;1999.90;999.90;;;;;;;35.50;29.65;97413.31;5008190;28;20320;-78
2022/08/16 10:21:36;;;;;;;1999.90;999.90;;;;;;;35.62;29.39;97409.53;5006548;28;20032;-76
2022/08/16 10:24:02;;;;;;;1999.90;999.90;;;;;;;36.93;27.85;97412.59;5008695;28;20034;-75
2022/08/16 10:26:29;;;;;;;1999.90;999.90;;;;;;;36.30;28.49;97412.91;5013139;28;20037;-74
2022/08/16 10:28:55;;;;;;;1999.90;999.90;;;;;;;34.71;31.18;97400.84;5010483;28;20091;-76
2022/08/16 10:31:20;;;;;;;1999.90;999.90;;;;;;;33.27;33.38;97404.38;5011945;28;20494;-77
2022/08/16 10:33:46;;;;;;;1999.90;999.90;;;;;;;34.51;31.24;97405.34;5017589;28;20021;-76
2022/08/16 10:36:12;;;;;;;1999.90;999.90;;;;;;;33.72;32.33;97396.25;5020680;28;20050;-77
2022/08/16 10:38:39;;;;;;;1999.90;999.90;;;;;;;34.83;30.92;97399.97;5010759;28;20125;-76
2022/08/16 10:41:06;;;;;;;1999.90;999.90;;;;;;;34.76;30.88;97400.25;4999507;28;20131;-76
2022/08/16 10:43:31;;;;;;;1999.90;999.90;;;;;;;35.56;29.88;97404.91;5008265;28;20474;-77
2022/08/16 10:45:56;;;;;;;1999.90;999.90;;;;;;;35.71;29.64;97406.66;5002032;28;20053;-76
2022/08/16 10:48:22;;;;;;;1999.90;999.90;;;;;;;35.43;29.60;97410.78;5004171;28;20037;-76
2022/08/16 10:50:48;;;;;;;1999.90;999.90;;;;;;;33.63;32.02;97412.41;5004192;28;20029;-76